^^
Station Historical Data
Daily Summary for July 10, 2017 Units:  Metric    English   Both
« Previous Day
Next Day »
Daily Weekly Monthly Yearly Custom
  High: Low: Average:
Temperature: 21.3 °C 4.3 °C 13.9 °C
Dew Point: 6.7 °C 2 °C 4.3 °C
Humidity: 91% 32% 58%
Wind Speed: 19.5km/h 0km/h 2.1km/h
Wind Gust: 19.5km/h - -
Wind- - WNW
Pressure: 1020.2 hPa 1015.5 hPa -
Precipitation: 0 mm    
Historical Graphs
 
 
Tabular Data for July 10, 2017
Time Temperature Dew Point Pressure Wind Wind Speed Wind Gust Humidity Rainfall Rate (Hourly) solar Conditions
05:46 5.5 °C 4 °C 1019.2 hPa Calm     90% 0 mm 0.0 W/m2
05:51 5.5 °C 4.1 °C 1019.2 hPa Calm     91% 0 mm 0.0 W/m2
06:01 5.2 °C 3.5 °C 1019.2 hPa Calm     89% 0 mm 0.0 W/m2
06:07 5.1 °C 3.4 °C 1019.2 hPa Calm     89% 0 mm 0.0 W/m2
06:16 4.9 °C 3.4 °C 1019.2 hPa Calm     90% 0 mm 0.0 W/m2
06:22 4.8 °C 3.1 °C 1019.2 hPa Calm     89% 0 mm 0.0 W/m2
06:27 4.7 °C 3.2 °C 1019.5 hPa Calm     90% 0 mm 0.0 W/m2
06:34 4.6 °C 2.9 °C 1019.5 hPa Calm     89% 0 mm 0.0 W/m2
06:37 4.4 °C 2.7 °C 1019.5 hPa Calm     89% 0 mm 0.0 W/m2
06:47 4.4 °C 2.7 °C 1019.5 hPa Calm     89% 0 mm 7.0 W/m2
06:57 4.3 °C 2.8 °C 1019.9 hPa Calm     90% 0 mm 12.0 W/m2
07:12 4.6 °C 3.1 °C 1019.9 hPa Calm     90% 0 mm 19.0 W/m2
07:19 4.6 °C 3.1 °C 1019.9 hPa Calm     90% 0 mm 19.0 W/m2
07:27 4.9 °C 3.4 °C 1019.9 hPa Calm     90% 0 mm 67.0 W/m2
07:53 6.2 °C 4.4 °C 1019.9 hPa Calm     88% 0 mm 144.0 W/m2
08:02 6.9 °C 4.7 °C 1019.9 hPa Calm     86% 0 mm 183.0 W/m2
08:10 7.7 °C 5.2 °C 1019.9 hPa Calm     84% 0 mm 221.0 W/m2
08:14 8.1 °C 5.4 °C 1020.2 hPa Calm     83% 0 mm 234.0 W/m2
11:05 15.2 °C 6.7 °C 1019.9 hPa Calm   3.2 km/h 57% 0 mm 561.0 W/m2
11:08 15.3 °C 6.3 °C 1019.9 hPa SW 1.4 km/h 6.4 km/h 55% 0 mm 563.0 W/m2
11:13 15.4 °C 6.4 °C 1019.9 hPa Calm     55% 0 mm 568.0 W/m2
11:32 15.9 °C 6.3 °C 1019.5 hPa Calm   9.7 km/h 53% 0 mm 577.0 W/m2
11:44 16.3 °C 6.1 °C 1019.2 hPa Calm     51% 0 mm 582.0 W/m2
11:59 16.8 °C 6 °C 1018.8 hPa SW 6.4 km/h 8 km/h 49% 0 mm 584.0 W/m2
12:26 17.4 °C 5.7 °C 1018.2 hPa Calm   12.9 km/h 46% 0 mm 580.0 W/m2
12:57 18.1 °C 5.3 °C 1017.5 hPa WNW 19.5 km/h 19.5 km/h 43% 0 mm 555.0 W/m2
13:12 18.4 °C 5.3 °C 1017.2 hPa WNW 1.4 km/h 9.7 km/h 42% 0 mm 540.0 W/m2
13:41 19.1 °C 5.2 °C 1016.8 hPa WNW 7.9 km/h 17.7 km/h 40% 0 mm 497.0 W/m2
13:55 19.2 °C 4.9 °C 1016.5 hPa NW 3.2 km/h 9.7 km/h 39% 0 mm 473.0 W/m2
14:04 19.6 °C 4.9 °C 1016.1 hPa NW 1.4 km/h 19.3 km/h 38% 0 mm 455.0 W/m2
14:13 19.8 °C 4.7 °C 1016.1 hPa Calm   9.7 km/h 37% 0 mm 434.0 W/m2
14:20 19.9 °C 4.8 °C 1016.1 hPa NW 4.7 km/h 11.3 km/h 37% 0 mm 424.0 W/m2
14:31 20.1 °C 5 °C 1016.1 hPa Calm   4.8 km/h 37% 0 mm 404.0 W/m2
15:12 20.7 °C 4.3 °C 1015.8 hPa NW 1.4 km/h 12.9 km/h 34% 0 mm 308.0 W/m2
15:22 20.9 °C 4.4 °C 1015.8 hPa Calm   8 km/h 34% 0 mm 279.0 W/m2
15:33 21 °C 4.1 °C 1015.8 hPa Calm   8 km/h 33% 0 mm 250.0 W/m2
15:43 21 °C 4.5 °C 1015.8 hPa Calm     34% 0 mm 223.0 W/m2
15:58 21.2 °C 3.8 °C 1015.8 hPa NW 3.2 km/h 9.7 km/h 32% 0 mm 172.0 W/m2
16:13 21.2 °C 3.8 °C 1015.5 hPa Calm     32% 0 mm 118.0 W/m2
16:24 21.3 °C 3.9 °C 1015.5 hPa Calm     32% 0 mm 84.0 W/m2
16:34 21.3 °C 3.9 °C 1015.5 hPa Calm     32% 0 mm 56.0 W/m2
16:43 21.1 °C 3.8 °C 1015.5 hPa Calm     32% 0 mm 33.0 W/m2
16:53 20.7 °C 3.8 °C 1015.5 hPa Calm     33% 0 mm 14.0 W/m2
17:04 20.3 °C 3.5 °C 1015.8 hPa Calm     33% 0 mm 9.0 W/m2
17:16 19.9 °C 3.6 °C 1015.8 hPa Calm     34% 0 mm 0.0 W/m2
17:32 18.7 °C 2.5 °C 1016.1 hPa Calm     34% 0 mm 0.0 W/m2
18:20 16 °C 2 °C 1016.5 hPa Calm     39% 0 mm 0.0 W/m2
18:36 15.2 °C 2.4 °C 1016.8 hPa Calm     42% 0 mm 0.0 W/m2
18:57 15.2 °C 3.7 °C 1017.2 hPa NW 6.4 km/h 11.3 km/h 46% 0 mm 0.0 W/m2
19:30 14.9 °C 4.6 °C 1017.5 hPa NW 13 km/h 13 km/h 50% 0 mm 0.0 W/m2
20:15 14.2 °C 5 °C 1018.2 hPa WNW 11.1 km/h 12.9 km/h 54% 0 mm 0.0 W/m2
20:31 13.8 °C 5.4 °C 1018.2 hPa WNW 9.7 km/h 11.3 km/h 57% 0 mm 0.0 W/m2
21:16 13.7 °C 5.3 °C 1018.5 hPa WNW 16.3 km/h 19.3 km/h 57% 0 mm 0.0 W/m2
21:28 13.6 °C 5.2 °C 1018.8 hPa WNW 9.7 km/h 11.3 km/h 57% 0 mm 0.0 W/m2
Canyon Roadhouse, Fishriver Canyon, Namibia
Compliments of Weather Underground - 1.75 mb